Time;durP1;ratioP1;P1;durP2;ratioP2;P2;SDS_P1;SDS_P2;PMS_P1;PMS_P2;Temp;Humidity;BMP_temperature;BMP_pressure;BME280_temperature;BME280_humidity;BME280_pressure;Samples;Min_cycle;Max_cycle;Signal;HPM_P1;HPM_P2
2022/04/22 00:00:30;;;;;;;9.90;9.60;;;8.30;99.90;;;;;;5146495;27;20277;-83
2022/04/22 00:02:58;;;;;;;10.07;9.77;;;8.30;99.90;;;;;;5148708;27;20239;-82
2022/04/22 00:05:27;;;;;;;9.70;9.40;;;8.20;99.90;;;;;;5153145;27;20227;-82
2022/04/22 00:07:56;;;;;;;9.80;9.50;;;8.10;99.90;;;;;;5157148;27;20228;-81
2022/04/22 00:10:25;;;;;;;9.80;9.50;;;8.20;99.90;;;;;;5153178;27;20325;-83
2022/04/22 00:12:58;;;;;;;9.97;9.67;;;8.20;99.90;;;;;;5148399;27;20343;-83
2022/04/22 00:15:25;;;;;;;9.57;9.27;;;8.20;99.90;;;;;;5147570;27;20236;-83
2022/04/22 00:17:54;;;;;;;9.80;9.50;;;8.20;99.90;;;;;;5146286;27;20289;-82
2022/04/22 00:20:23;;;;;;;9.77;9.47;;;8.30;99.90;;;;;;5144975;27;20732;-82
2022/04/22 00:22:53;;;;;;;9.80;9.50;;;8.30;99.90;;;;;;5146538;27;20232;-81
2022/04/22 00:25:22;;;;;;;9.90;9.60;;;8.30;99.90;;;;;;5146164;27;20240;-82
2022/04/22 00:27:51;;;;;;;9.60;9.30;;;8.40;99.90;;;;;;5145684;27;20225;-81
2022/04/22 00:30:30;;;;;;;9.57;9.27;;;8.30;99.90;;;;;;5145758;27;20297;-81
2022/04/22 00:32:59;;;;;;;9.63;9.33;;;8.30;99.90;;;;;;5145548;27;20236;-81
2022/04/22 00:35:31;;;;;;;9.60;9.30;;;8.40;99.90;;;;;;5145845;27;20254;-81
2022/04/22 00:37:59;;;;;;;9.90;9.60;;;8.40;99.90;;;;;;5144500;27;20291;-81
2022/04/22 00:40:28;;;;;;;9.90;9.60;;;8.40;99.90;;;;;;5145113;27;20232;-82
2022/04/22 00:42:57;;;;;;;9.60;9.30;;;8.30;99.90;;;;;;5144581;27;20233;-82
2022/04/22 00:45:37;;;;;;;9.90;9.60;;;8.30;99.90;;;;;;5145208;27;20305;-82
2022/04/22 00:48:05;;;;;;;10.07;9.77;;;8.20;99.90;;;;;;5143781;27;20290;-81
2022/04/22 00:50:34;;;;;;;10.10;9.80;;;8.20;99.90;;;;;;5144356;27;20208;-82
2022/04/22 00:53:04;;;;;;;9.90;9.60;;;8.10;99.90;;;;;;5144046;27;20224;-81
2022/04/22 00:55:33;;;;;;;10.00;9.70;;;8.10;99.90;;;;;;5144593;27;20228;-82
2022/04/22 00:58:03;;;;;;;9.93;9.63;;;8.10;99.90;;;;;;5144413;27;20239;-81
2022/04/22 01:00:35;;;;;;;10.00;9.70;;;8.10;99.90;;;;;;5144352;27;20224;-81
2022/04/22 01:03:03;;;;;;;9.70;9.40;;;8.00;99.90;;;;;;5144713;27;20270;-81
2022/04/22 01:11:06;;;;;;;9.87;9.57;;;8.00;99.90;;;;;;5148674;27;20234;-81
2022/04/22 01:13:34;;;;;;;9.80;9.50;;;8.00;99.90;;;;;;5148582;27;20250;-81
2022/04/22 01:16:12;;;;;;;9.70;9.40;;;8.10;99.90;;;;;;5148997;27;20262;-81
2022/04/22 01:18:45;;;;;;;9.80;9.50;;;8.00;99.90;;;;;;5157746;27;20228;-80
2022/04/22 01:21:16;;;;;;;9.70;9.40;;;8.00;99.90;;;;;;5156237;27;20250;-81
2022/04/22 01:23:44;;;;;;;9.93;9.63;;;8.00;99.90;;;;;;5148107;27;20232;-82
2022/04/22 01:26:12;;;;;;;9.60;9.30;;;8.00;99.90;;;;;;5145447;27;20237;-81
2022/04/22 01:28:41;;;;;;;9.87;9.57;;;7.90;99.90;;;;;;5145639;27;20254;-81
2022/04/22 01:31:11;;;;;;;9.70;9.40;;;7.90;99.90;;;;;;5144269;27;20231;-82
2022/04/22 01:33:40;;;;;;;9.73;9.43;;;7.80;99.90;;;;;;5144601;27;20224;-82
2022/04/22 01:36:10;;;;;;;10.30;10.00;;;7.90;99.90;;;;;;5144276;27;20285;-82
2022/04/22 01:41:27;;;;;;;10.40;10.10;;;7.70;99.90;;;;;;5143384;27;20273;-82
2022/04/22 01:43:56;;;;;;;10.00;9.70;;;7.60;99.90;;;;;;5145514;27;20291;-81
2022/04/22 01:46:25;;;;;;;10.10;9.80;;;7.60;99.90;;;;;;5156392;27;20297;-82
2022/04/22 01:48:55;;;;;;;9.93;9.63;;;7.60;99.90;;;;;;5153550;27;20224;-81
2022/04/22 01:51:24;;;;;;;10.07;9.77;;;7.50;99.90;;;;;;5149472;27;20604;-81
2022/04/22 01:56:40;;;;;;;10.00;9.70;;;7.50;99.90;;;;;;5144669;27;20224;-82
2022/04/22 01:59:10;;;;;;;10.10;9.80;;;7.60;99.90;;;;;;5148209;27;20557;-82
2022/04/22 02:01:39;;;;;;;9.90;9.60;;;7.60;99.90;;;;;;5145155;27;20225;-82
2022/04/22 02:04:09;;;;;;;10.33;10.03;;;7.50;99.90;;;;;;5146091;27;20254;-82
2022/04/22 02:06:38;;;;;;;9.90;9.60;;;7.50;99.90;;;;;;5145881;27;20228;-82
2022/04/22 02:11:55;;;;;;;10.33;10.03;;;7.40;99.90;;;;;;5140844;27;20240;-82
2022/04/22 02:14:24;;;;;;;10.10;9.80;;;7.40;99.90;;;;;;5145230;27;20300;-82
2022/04/22 02:16:53;;;;;;;10.20;9.90;;;7.30;99.90;;;;;;5147814;27;20263;-82
2022/04/22 02:19:23;;;;;;;10.10;9.80;;;7.40;99.90;;;;;;5148832;27;20293;-81
2022/04/22 02:21:52;;;;;;;10.23;9.93;;;7.40;99.90;;;;;;5149174;27;20232;-81
2022/04/22 02:24:31;;;;;;;10.03;9.73;;;7.30;99.90;;;;;;5149163;27;20228;-82
2022/04/22 02:29:48;;;;;;;10.10;9.80;;;7.50;99.90;;;;;;5148960;27;20197;-82
2022/04/22 02:32:16;;;;;;;10.00;9.70;;;7.30;99.90;;;;;;5147737;27;20228;-81
2022/04/22 02:34:46;;;;;;;10.00;9.70;;;7.30;99.90;;;;;;5148821;27;20224;-82
2022/04/22 02:37:16;;;;;;;9.97;9.67;;;7.20;99.90;;;;;;5149216;27;20759;-82
2022/04/22 02:39:47;;;;;;;10.00;9.70;;;7.20;99.90;;;;;;5148533;27;20236;-81
2022/04/22 02:47:49;;;;;;;10.20;9.90;;;7.20;99.90;;;;;;5156549;27;20223;-81
2022/04/22 02:50:18;;;;;;;10.40;10.10;;;7.10;99.90;;;;;;5158268;27;20225;-80
2022/04/22 02:52:47;;;;;;;10.43;10.13;;;7.00;99.90;;;;;;5156192;27;20246;-81
2022/04/22 02:55:25;;;;;;;10.50;10.20;;;7.00;99.90;;;;;;5154134;27;20293;-82
2022/04/22 02:57:55;;;;;;;10.50;10.20;;;7.00;99.90;;;;;;5148093;27;20275;-82
2022/04/22 03:00:24;;;;;;;10.20;9.90;;;7.00;99.90;;;;;;5147465;27;20249;-81
2022/04/22 03:02:54;;;;;;;10.60;10.30;;;7.00;99.90;;;;;;5146562;27;20228;-81
2022/04/22 03:05:23;;;;;;;10.37;10.07;;;6.90;99.90;;;;;;5146820;27;20228;-82
2022/04/22 03:07:53;;;;;;;10.20;9.90;;;6.90;99.90;;;;;;5147383;27;20258;-81
2022/04/22 03:13:09;;;;;;;10.57;10.27;;;6.90;99.90;;;;;;5146090;27;20322;-81
2022/04/22 03:15:39;;;;;;;10.03;9.73;;;7.00;99.90;;;;;;5147762;27;20245;-81
2022/04/22 03:18:11;;;;;;;9.83;9.53;;;7.00;99.90;;;;;;5147448;27;20228;-81
2022/04/22 03:20:40;;;;;;;10.30;10.00;;;6.90;99.90;;;;;;5145824;27;20254;-81
2022/04/22 03:23:09;;;;;;;10.20;9.90;;;6.90;99.90;;;;;;5145613;27;20259;-81
2022/04/22 03:25:49;;;;;;;10.23;9.93;;;6.90;99.90;;;;;;5145156;27;20267;-81
2022/04/22 03:28:17;;;;;;;10.40;10.10;;;7.00;99.90;;;;;;5144989;27;20228;-81
2022/04/22 03:30:46;;;;;;;10.13;9.83;;;6.90;99.90;;;;;;5150911;27;20215;-80
2022/04/22 03:33:17;;;;;;;10.37;10.07;;;6.80;99.90;;;;;;5160780;27;20223;-81
2022/04/22 03:35:45;;;;;;;10.40;10.10;;;6.70;99.90;;;;;;5149304;27;20228;-82
2022/04/22 03:38:14;;;;;;;10.33;10.03;;;6.70;99.90;;;;;;5147941;27;20240;-81
2022/04/22 03:43:31;;;;;;;10.60;10.30;;;6.80;99.90;;;;;;5145561;27;20208;-82
2022/04/22 03:46:01;;;;;;;10.60;10.30;;;6.90;99.90;;;;;;5146678;27;20263;-81
2022/04/22 03:48:29;;;;;;;10.70;10.40;;;6.80;99.90;;;;;;5145662;27;20228;-82
2022/04/22 03:51:00;;;;;;;10.60;10.30;;;6.70;99.90;;;;;;5147000;27;20236;-81
2022/04/22 03:53:29;;;;;;;10.87;10.57;;;6.60;99.90;;;;;;5148105;27;20231;-80
2022/04/22 03:58:46;;;;;;;11.23;10.93;;;6.60;99.90;;;;;;5160040;27;20216;-80
2022/04/22 04:01:14;;;;;;;11.47;11.07;;;6.60;99.90;;;;;;5161164;27;20208;-81
2022/04/22 04:03:45;;;;;;;11.27;10.97;;;6.70;99.90;;;;;;5161369;27;20221;-80
2022/04/22 04:06:14;;;;;;;11.17;10.87;;;6.70;99.90;;;;;;5161650;27;20223;-80
2022/04/22 04:15:57;;;;;;;11.20;10.90;;;6.70;99.90;;;;;;5161025;27;20251;-80
2022/04/22 04:17:05;;;;;;;11.27;10.93;;;6.60;99.90;;;;;;5143493;27;20247;-81
2022/04/22 04:25:09;;;;;;;11.17;10.87;;;6.50;99.90;;;;;;5142070;27;20295;-82
2022/04/22 04:27:40;;;;;;;11.10;10.80;;;6.60;99.90;;;;;;5142742;27;20231;-82
2022/04/22 04:30:16;;;;;;;10.90;10.60;;;6.60;99.90;;;;;;5142187;27;20228;-82
2022/04/22 04:32:44;;;;;;;10.60;10.30;;;6.70;99.90;;;;;;5142108;27;20274;-81
2022/04/22 04:35:13;;;;;;;10.70;10.40;;;6.70;99.90;;;;;;5141972;27;20306;-82
2022/04/22 04:37:43;;;;;;;10.63;10.33;;;6.70;99.90;;;;;;5141763;27;20232;-82
2022/04/22 04:40:13;;;;;;;10.77;10.47;;;6.70;99.90;;;;;;5143050;27;20236;-82
2022/04/22 04:42:44;;;;;;;10.70;10.40;;;6.80;99.90;;;;;;5143705;27;20273;-82
2022/04/22 04:45:12;;;;;;;10.60;10.30;;;6.70;99.90;;;;;;5143979;27;20231;-81
2022/04/22 04:47:41;;;;;;;10.70;10.40;;;6.70;99.90;;;;;;5150833;27;20239;-81
2022/04/22 04:50:11;;;;;;;10.80;10.50;;;6.70;99.90;;;;;;5148382;27;20224;-82
2022/04/22 04:52:40;;;;;;;11.00;10.70;;;6.70;99.90;;;;;;5147028;27;20228;-82
2022/04/22 04:55:10;;;;;;;10.90;10.60;;;6.70;99.90;;;;;;5146720;27;20227;-81
2022/04/22 04:57:38;;;;;;;11.00;10.70;;;6.80;99.90;;;;;;5158610;22;20298;-82
2022/04/22 05:00:10;;;;;;;11.00;10.70;;;6.90;99.90;;;;;;5120884;28;20279;-82
2022/04/22 05:02:37;;;;;;;10.70;10.40;;;7.00;99.90;;;;;;5120426;28;20221;-81
2022/04/22 05:05:09;;;;;;;10.37;10.07;;;7.10;99.90;;;;;;5132708;28;20345;-82
2022/04/22 05:07:49;;;;;;;10.30;10.00;;;7.20;99.90;;;;;;5122934;28;20296;-81
2022/04/22 05:10:18;;;;;;;10.80;10.50;;;7.30;99.90;;;;;;5121134;28;20236;-82
2022/04/22 05:12:46;;;;;;;10.50;10.20;;;7.30;99.90;;;;;;5120692;28;20254;-81
2022/04/22 05:15:17;;;;;;;10.20;9.90;;;7.40;99.90;;;;;;5120939;28;20216;-80
2022/04/22 05:17:46;;;;;;;10.43;10.13;;;7.50;99.90;;;;;;5120407;28;20297;-82
2022/04/22 05:20:17;;;;;;;10.00;9.70;;;7.60;99.90;;;;;;5120946;28;20232;-81
2022/04/22 05:22:45;;;;;;;10.07;9.77;;;7.60;99.90;;;;;;5119993;28;20241;-82
2022/04/22 05:25:15;;;;;;;10.60;10.30;;;7.70;99.90;;;;;;5120919;27;20239;-81
2022/04/22 05:27:43;;;;;;;10.73;10.43;;;7.70;99.90;;;;;;5120870;28;20290;-81
2022/04/22 05:33:00;;;;;;;10.83;10.53;;;7.80;99.90;;;;;;5121276;28;20232;-81
2022/04/22 05:35:28;;;;;;;10.43;10.13;;;7.90;99.90;;;;;;5120394;28;20233;-81
2022/04/22 05:37:58;;;;;;;10.80;10.50;;;7.90;99.90;;;;;;5120174;28;20259;-81
2022/04/22 05:40:29;;;;;;;10.50;10.20;;;7.90;99.90;;;;;;5119955;28;20307;-81
2022/04/22 05:42:57;;;;;;;10.40;10.10;;;8.00;99.90;;;;;;5120025;28;20233;-81
2022/04/22 05:45:28;;;;;;;10.53;10.23;;;8.00;99.90;;;;;;5119770;27;20243;-81
2022/04/22 05:47:57;;;;;;;10.40;10.10;;;8.20;99.90;;;;;;5120256;28;20267;-82
2022/04/22 05:50:26;;;;;;;10.67;10.37;;;8.30;99.90;;;;;;5120376;27;20236;-82
2022/04/22 05:52:54;;;;;;;11.00;10.70;;;8.40;99.90;;;;;;5123609;28;20719;-82
2022/04/22 05:55:24;;;;;;;10.83;10.53;;;8.50;99.90;;;;;;5122686;28;20224;-81
2022/04/22 05:57:54;;;;;;;10.80;10.50;;;8.60;99.90;;;;;;5121367;27;20250;-81
2022/04/22 06:00:24;;;;;;;11.00;10.70;;;8.60;99.90;;;;;;5122321;27;20386;-81
2022/04/22 06:02:57;;;;;;;10.87;10.57;;;8.70;99.90;;;;;;5122021;28;20272;-80
2022/04/22 06:05:26;;;;;;;11.00;10.70;;;8.70;99.90;;;;;;5122551;28;20240;-82
2022/04/22 06:10:37;;;;;;;11.00;10.70;;;8.90;99.90;;;;;;5121185;28;20228;-82
2022/04/22 06:13:06;;;;;;;10.93;10.63;;;9.10;99.90;;;;;;5121923;28;20217;-81
2022/04/22 06:15:34;;;;;;;10.80;10.50;;;9.20;99.90;;;;;;5121854;27;20243;-82
2022/04/22 06:18:04;;;;;;;10.87;10.57;;;9.20;99.90;;;;;;5121939;27;20718;-81
2022/04/22 06:20:32;;;;;;;10.93;10.63;;;9.30;99.90;;;;;;5122243;28;20260;-81
2022/04/22 06:23:00;;;;;;;11.10;10.80;;;9.40;99.90;;;;;;5122093;27;20224;-83
2022/04/22 06:25:29;;;;;;;11.10;10.80;;;9.40;99.90;;;;;;5121967;28;20276;-81
2022/04/22 06:27:57;;;;;;;11.00;10.70;;;9.50;99.90;;;;;;5122098;27;20229;-81
2022/04/22 06:30:28;;;;;;;11.10;10.80;;;9.50;99.90;;;;;;5122917;28;20385;-81
2022/04/22 06:32:57;;;;;;;11.13;10.80;;;9.50;99.90;;;;;;5122332;28;20246;-81
2022/04/22 06:35:26;;;;;;;11.40;11.00;;;9.50;99.90;;;;;;5121952;28;20236;-82
2022/04/22 06:37:55;;;;;;;10.97;10.67;;;9.60;99.90;;;;;;5121460;28;20243;-81
2022/04/22 06:45:56;;;;;;;11.47;11.07;;;9.70;99.90;;;;;;5122183;28;20429;-82
2022/04/22 06:48:30;;;;;;;11.50;11.10;;;9.80;99.90;;;;;;5127829;28;20229;-82
2022/04/22 06:51:01;;;;;;;11.40;11.00;;;9.90;99.90;;;;;;5129832;28;20229;-82
2022/04/22 06:53:30;;;;;;;11.47;11.07;;;10.00;99.90;;;;;;5128007;28;20248;-82
2022/04/22 06:56:00;;;;;;;10.90;10.60;;;10.10;99.90;;;;;;5130128;27;20284;-82
2022/04/22 06:58:31;;;;;;;11.10;10.80;;;10.10;99.90;;;;;;5126736;27;20241;-82
2022/04/22 07:00:59;;;;;;;10.90;10.60;;;10.10;99.90;;;;;;5125649;28;20354;-82
2022/04/22 07:03:28;;;;;;;11.00;10.70;;;10.00;99.90;;;;;;5129651;28;20231;-82
2022/04/22 07:05:56;;;;;;;11.00;10.70;;;9.90;99.90;;;;;;5127132;28;20205;-82
2022/04/22 07:08:26;;;;;;;11.00;10.70;;;10.00;99.90;;;;;;5125529;27;20271;-82
2022/04/22 07:10:54;;;;;;;11.10;10.80;;;10.00;99.90;;;;;;5125504;27;20282;-83
2022/04/22 07:13:23;;;;;;;10.77;10.47;;;10.10;99.90;;;;;;5124055;27;20297;-81
2022/04/22 07:15:51;;;;;;;11.00;10.70;;;10.10;99.90;;;;;;5123013;27;20282;-82
2022/04/22 07:18:20;;;;;;;10.70;10.40;;;10.20;99.90;;;;;;5124649;27;20279;-82
2022/04/22 07:20:48;;;;;;;11.10;10.80;;;10.40;99.90;;;;;;5122800;27;20286;-83
2022/04/22 07:23:17;;;;;;;11.23;10.93;;;10.30;99.90;;;;;;5122065;27;20225;-83
2022/04/22 07:25:48;;;;;;;10.97;10.67;;;10.50;99.90;;;;;;5121857;27;20229;-82
2022/04/22 07:28:16;;;;;;;10.90;10.60;;;10.60;99.90;;;;;;5122017;28;20246;-82
2022/04/22 07:30:46;;;;;;;10.90;10.60;;;10.70;99.90;;;;;;5121877;27;20282;-82
2022/04/22 07:33:14;;;;;;;10.93;10.63;;;10.80;99.90;;;;;;5121619;27;20405;-82
2022/04/22 07:35:43;;;;;;;11.10;10.80;;;11.00;99.90;;;;;;5121318;27;20316;-82
2022/04/22 07:38:12;;;;;;;11.10;10.80;;;11.20;99.90;;;;;;5121384;27;20228;-83
2022/04/22 07:40:43;;;;;;;11.20;10.90;;;11.30;99.90;;;;;;5121556;27;20282;-82
2022/04/22 07:48:45;;;;;;;11.30;11.00;;;11.80;99.90;;;;;;5121313;28;20229;-81
2022/04/22 07:51:13;;;;;;;11.10;10.80;;;11.90;99.90;;;;;;5121280;27;20235;-83
2022/04/22 07:53:40;;;;;;;11.20;10.90;;;12.10;99.90;;;;;;5120670;27;20228;-82
2022/04/22 07:56:08;;;;;;;11.33;11.03;;;12.10;99.90;;;;;;5120663;27;20317;-82
2022/04/22 07:58:38;;;;;;;11.30;11.00;;;12.10;99.90;;;;;;5120915;27;20298;-83
2022/04/22 08:01:06;;;;;;;11.27;10.97;;;12.20;99.90;;;;;;5121366;27;20233;-82
2022/04/22 08:03:34;;;;;;;11.23;10.93;;;12.30;99.90;;;;;;5122096;27;20235;-82
2022/04/22 08:06:02;;;;;;;11.27;10.97;;;12.50;99.90;;;;;;5121581;28;20229;-83
2022/04/22 08:08:30;;;;;;;11.33;11.03;;;12.70;99.90;;;;;;5122500;28;20236;-82
2022/04/22 08:10:58;;;;;;;11.13;10.83;;;12.70;99.90;;;;;;5122114;28;20251;-83
2022/04/22 08:13:26;;;;;;;11.20;10.90;;;12.90;99.90;;;;;;5121300;27;20270;-82
2022/04/22 08:15:55;;;;;;;11.77;11.37;;;13.10;99.90;;;;;;5123121;27;20329;-82
2022/04/22 08:18:23;;;;;;;11.30;10.97;;;13.20;99.90;;;;;;5121734;27;20244;-82
2022/04/22 08:20:51;;;;;;;11.57;11.17;;;13.20;99.90;;;;;;5129186;28;20236;-82
2022/04/22 08:23:21;;;;;;;11.70;11.30;;;13.40;99.90;;;;;;5134687;28;20324;-82
2022/04/22 08:25:48;;;;;;;11.23;10.93;;;13.60;99.90;;;;;;5133082;28;20288;-82
2022/04/22 08:28:16;;;;;;;11.70;11.30;;;13.70;99.90;;;;;;5126542;27;20237;-82
2022/04/22 08:30:44;;;;;;;11.60;11.20;;;13.70;99.90;;;;;;5122778;28;20267;-83
2022/04/22 08:33:13;;;;;;;11.10;10.80;;;13.80;99.90;;;;;;5120693;28;20289;-82
2022/04/22 08:35:44;;;;;;;11.20;10.90;;;13.90;99.90;;;;;;5120571;28;20213;-82
2022/04/22 08:38:11;;;;;;;11.40;11.10;;;14.00;99.90;;;;;;5121452;28;20255;-82
2022/04/22 08:40:40;;;;;;;11.00;10.70;;;14.30;99.90;;;;;;5122415;27;20228;-82
2022/04/22 08:43:08;;;;;;;11.27;10.98;;;14.40;99.90;;;;;;5121429;27;20233;-81
2022/04/22 08:45:37;;;;;;;11.23;10.93;;;14.30;99.90;;;;;;5121717;28;20229;-82
2022/04/22 08:50:55;;;;;;;11.07;10.77;;;14.50;99.90;;;;;;5122060;28;20209;-82
2022/04/22 08:53:29;;;;;;;10.90;10.60;;;14.60;99.90;;;;;;5121099;28;20229;-82
2022/04/22 08:55:59;;;;;;;11.25;10.95;;;14.80;99.90;;;;;;5122051;28;20696;-81
2022/04/22 08:58:31;;;;;;;11.30;11.00;;;15.00;99.90;;;;;;5121740;27;20245;-82
2022/04/22 09:00:59;;;;;;;11.20;10.90;;;15.20;99.90;;;;;;5124693;28;20233;-82
2022/04/22 09:03:28;;;;;;;10.77;10.48;;;15.10;99.90;;;;;;5127060;27;20278;-82
2022/04/22 09:05:58;;;;;;;11.05;10.75;;;15.10;99.90;;;;;;5130283;28;20220;-82
2022/04/22 09:08:28;;;;;;;10.48;10.18;;;15.40;99.90;;;;;;5129634;28;20237;-82
2022/04/22 09:10:56;;;;;;;10.63;10.32;;;15.40;99.90;;;;;;5129044;28;20284;-82
2022/04/22 09:13:30;;;;;;;10.95;10.65;;;15.50;99.90;;;;;;5126182;28;20260;-82
2022/04/22 09:15:59;;;;;;;10.75;10.45;;;15.70;99.90;;;;;;5128800;28;20232;-82
2022/04/22 09:18:27;;;;;;;11.10;10.80;;;15.70;99.90;;;;;;5130916;27;20323;-81
2022/04/22 09:21:02;;;;;;;10.77;10.48;;;15.60;99.90;;;;;;5129875;28;20228;-83
2022/04/22 09:23:35;;;;;;;10.93;10.63;;;15.80;99.90;;;;;;5138998;28;20228;-82
2022/04/22 09:26:05;;;;;;;10.80;10.50;;;16.10;99.90;;;;;;5142502;27;20236;-83
2022/04/22 09:28:34;;;;;;;11.15;10.85;;;16.50;99.90;;;;;;5143286;27;20236;-83
2022/04/22 09:31:06;;;;;;;10.98;10.68;;;16.60;99.90;;;;;;5143866;27;20216;-82
2022/04/22 09:33:47;;;;;;;11.15;10.85;;;16.30;99.90;;;;;;5142396;27;20232;-82
2022/04/22 09:44:58;;;;;;;10.90;10.60;;;17.00;99.90;;;;;;5144141;27;20311;-82
2022/04/22 09:47:31;;;;;;;11.10;10.80;;;17.10;99.90;;;;;;5142958;27;20254;-83
2022/04/22 09:50:03;;;;;;;11.27;10.98;;;17.20;99.90;;;;;;5143371;27;20272;-83
2022/04/22 09:52:34;;;;;;;11.35;11.00;;;17.50;99.90;;;;;;5143405;27;20264;-82
2022/04/22 09:55:04;;;;;;;11.23;10.93;;;17.70;99.90;;;;;;5142330;27;20247;-82
2022/04/22 09:57:52;;;;;;;11.45;11.10;;;17.80;99.90;;;;;;5141994;27;20282;-83
2022/04/22 10:00:20;;;;;;;11.20;10.90;;;17.80;99.90;;;;;;5143342;27;20235;-81
2022/04/22 10:02:51;;;;;;;11.23;10.93;;;17.80;99.90;;;;;;5142922;27;20223;-83
2022/04/22 10:05:21;;;;;;;11.65;11.25;;;17.80;99.90;;;;;;5143202;27;20225;-83
2022/04/22 10:07:53;;;;;;;11.60;11.20;;;18.00;99.90;;;;;;5142265;27;20209;-83
2022/04/22 10:10:30;;;;;;;11.60;11.20;;;18.00;99.90;;;;;;5143221;27;20205;-83
2022/04/22 10:12:58;;;;;;;11.32;11.02;;;18.00;99.90;;;;;;5143004;27;20221;-83
2022/04/22 10:15:29;;;;;;;10.82;10.52;;;18.20;99.90;;;;;;5131508;27;20236;-82
2022/04/22 10:18:08;;;;;;;10.80;10.50;;;18.30;99.90;;;;;;5133286;27;20213;-82
2022/04/22 10:20:38;;;;;;;10.88;10.57;;;18.30;99.90;;;;;;5143254;27;20208;-82
2022/04/22 10:23:13;;;;;;;11.20;10.90;;;18.10;99.90;;;;;;5142937;27;20240;-83
2022/04/22 10:25:42;;;;;;;11.20;10.90;;;18.40;99.90;;;;;;5142923;27;20235;-83
2022/04/22 10:28:12;;;;;;;11.07;10.77;;;18.60;99.90;;;;;;5142798;27;20221;-80
2022/04/22 10:30:42;;;;;;;11.07;10.77;;;19.00;99.90;;;;;;5142963;27;20237;-81
2022/04/22 10:33:11;;;;;;;11.10;10.80;;;19.20;99.90;;;;;;5141732;27;20236;-81
2022/04/22 10:35:46;;;;;;;11.10;10.80;;;19.10;99.90;;;;;;5142709;27;20236;-81
2022/04/22 10:38:34;;;;;;;10.85;10.55;;;19.40;99.90;;;;;;5141889;27;20208;-81
2022/04/22 10:41:05;;;;;;;10.80;10.50;;;19.70;99.90;;;;;;5142851;27;20232;-82
2022/04/22 10:43:33;;;;;;;11.00;10.70;;;19.70;99.90;;;;;;5140825;27;20237;-81
2022/04/22 10:49:12;;;;;;;11.20;10.90;;;19.30;99.90;;;;;;5141711;27;20240;-81
2022/04/22 10:52:03;;;;;;;11.20;10.90;;;19.40;99.90;;;;;;5140108;27;20324;-81
2022/04/22 10:55:10;;;;;;;11.00;10.70;;;19.80;99.90;;;;;;5121609;28;20228;-82
2022/04/22 11:00:30;;;;;;;11.00;10.70;;;20.70;99.90;;;;;;5153237;27;20204;-83
2022/04/22 11:03:19;;;;;;;10.88;10.57;;;20.80;99.90;;;;;;5149614;27;20232;-83
2022/04/22 11:05:56;;;;;;;11.00;10.70;;;21.00;99.90;;;;;;5150416;27;20253;-83
2022/04/22 11:11:20;;;;;;;10.80;10.50;;;21.40;99.90;;;;;;5148530;27;20223;-82
2022/04/22 11:13:50;;;;;;;11.63;11.23;;;21.30;99.90;;;;;;5149291;27;20231;-82
2022/04/22 11:19:25;;;;;;;11.23;10.93;;;21.70;99.90;;;;;;5147198;27;20255;-82
2022/04/22 11:21:55;;;;;;;11.40;11.10;;;21.60;99.90;;;;;;5149334;27;20220;-82
2022/04/22 11:24:26;;;;;;;11.65;11.25;;;21.70;99.90;;;;;;5148260;27;20236;-82
2022/04/22 11:27:11;;;;;;;11.13;10.82;;;22.20;99.90;;;;;;5148834;27;20291;-82
2022/04/22 11:29:41;;;;;;;11.23;10.93;;;22.40;99.90;;;;;;5148720;27;20239;-82
2022/04/22 11:32:20;;;;;;;11.05;10.75;;;22.20;99.90;;;;;;5147917;27;20236;-82
2022/04/22 11:35:16;;;;;;;11.00;10.70;;;22.50;99.90;;;;;;5148109;27;20291;-82
2022/04/22 11:37:44;;;;;;;10.85;10.55;;;22.30;99.90;;;;;;5148660;27;20236;-82
2022/04/22 11:40:22;;;;;;;11.20;10.90;;;22.10;99.90;;;;;;5149645;27;20224;-82
2022/04/22 11:45:39;;;;;;;10.63;10.32;;;22.20;99.90;;;;;;5149404;27;20243;-82
2022/04/22 11:48:10;;;;;;;10.60;10.30;;;22.00;99.90;;;;;;5149444;27;20231;-83
2022/04/22 11:50:40;;;;;;;10.70;10.40;;;22.00;99.90;;;;;;5149652;27;20224;-82
2022/04/22 11:53:17;;;;;;;10.70;10.40;;;21.70;99.90;;;;;;5149597;27;20224;-82
2022/04/22 11:55:47;;;;;;;10.93;10.63;;;21.50;99.90;;;;;;5149647;27;20258;-82
2022/04/22 11:58:24;;;;;;;11.30;11.00;;;21.60;99.90;;;;;;5148467;27;20236;-82
2022/04/22 12:06:29;;;;;;;11.52;11.18;;;22.40;99.90;;;;;;5149573;27;20208;-82
2022/04/22 12:09:01;;;;;;;11.15;10.85;;;22.30;99.90;;;;;;5147949;27;20296;-82
2022/04/22 12:11:32;;;;;;;11.18;10.88;;;22.50;99.90;;;;;;5148100;27;21149;-82
2022/04/22 12:14:07;;;;;;;11.60;11.20;;;22.70;99.90;;;;;;5148358;27;20228;-83
2022/04/22 12:16:43;;;;;;;11.57;11.18;;;22.60;99.90;;;;;;5147880;27;20261;-82
2022/04/22 12:19:30;;;;;;;11.57;11.18;;;22.60;99.90;;;;;;5152730;27;20228;-82
2022/04/22 12:22:00;;;;;;;11.70;11.30;;;23.00;99.90;;;;;;5145256;27;20289;-82
2022/04/22 12:24:28;;;;;;;11.63;11.23;;;23.10;99.90;;;;;;5146180;27;20228;-82
2022/04/22 12:26:58;;;;;;;11.80;11.40;;;23.40;99.90;;;;;;5147076;27;20297;-83
2022/04/22 12:29:36;;;;;;;11.63;11.23;;;23.10;99.90;;;;;;5147851;27;20262;-82
2022/04/22 12:32:06;;;;;;;12.00;11.60;;;22.30;99.90;;;;;;5159740;27;20287;-82
2022/04/22 12:34:36;;;;;;;11.75;11.35;;;22.30;99.90;;;;;;5160988;27;20216;-82
2022/04/22 12:37:07;;;;;;;11.68;11.27;;;22.50;99.90;;;;;;5160394;27;20223;-82
2022/04/22 12:39:42;;;;;;;11.10;10.80;;;23.10;99.90;;;;;;5161187;27;20223;-81
2022/04/22 12:42:29;;;;;;;10.70;10.40;;;23.50;99.90;;;;;;5153249;27;20227;-81
2022/04/22 12:53:39;;;;;;;10.70;10.40;;;23.40;99.90;;;;;;5144638;27;20230;-82
2022/04/22 12:56:09;;;;;;;11.40;11.10;;;23.10;99.90;;;;;;5144198;27;20231;-82
2022/04/22 12:58:54;;;;;;;11.18;10.88;;;22.00;99.90;;;;;;5143736;27;20240;-82
2022/04/22 13:01:32;;;;;;;11.18;10.88;;;21.90;99.90;;;;;;5143616;27;20246;-83
2022/04/22 13:04:02;;;;;;;11.25;10.95;;;21.90;99.90;;;;;;5144438;27;20283;-82
2022/04/22 13:06:43;;;;;;;11.73;11.32;;;22.30;99.90;;;;;;5144484;27;20231;-82
2022/04/22 13:09:22;;;;;;;11.45;11.15;;;22.50;99.90;;;;;;5144185;27;20234;-83
2022/04/22 13:11:56;;;;;;;11.52;11.18;;;22.30;99.90;;;;;;5125761;27;20216;-82
2022/04/22 13:14:26;;;;;;;11.10;10.80;;;22.20;99.90;;;;;;5145011;27;20270;-83
2022/04/22 13:19:49;;;;;;;11.02;10.73;;;23.20;99.90;;;;;;5131266;22;20296;-83
2022/04/22 13:22:17;;;;;;;11.00;10.70;;;23.30;99.90;;;;;;5123699;28;20221;-83
2022/04/22 13:24:45;;;;;;;11.18;10.88;;;23.00;99.90;;;;;;5123856;28;20241;-83
2022/04/22 13:27:14;;;;;;;11.30;11.00;;;22.50;99.90;;;;;;5124394;28;20272;-83
2022/04/22 13:29:43;;;;;;;11.13;10.82;;;22.20;99.90;;;;;;5103406;28;20271;-83
2022/04/22 13:32:14;;;;;;;10.68;10.38;;;22.20;99.90;;;;;;5104245;28;20225;-83
2022/04/22 13:34:42;;;;;;;10.63;10.32;;;22.20;99.90;;;;;;5103498;28;20251;-83
2022/04/22 13:37:13;;;;;;;10.57;10.27;;;22.10;99.90;;;;;;5103085;28;20230;-83
2022/04/22 13:39:42;;;;;;;10.52;10.23;;;22.20;99.90;;;;;;5103737;28;20244;-83
2022/04/22 13:42:10;;;;;;;10.27;9.98;;;22.50;99.90;;;;;;5110700;28;20244;-83
2022/04/22 13:53:01;;;;;;;11.15;10.85;;;21.80;99.90;;;;;;5104945;28;20218;-82
2022/04/22 13:55:29;;;;;;;11.10;10.80;;;21.30;99.90;;;;;;5104582;28;20291;-83
2022/04/22 13:57:59;;;;;;;11.20;10.90;;;21.20;99.90;;;;;;5103358;28;20236;-82
2022/04/22 14:00:28;;;;;;;10.60;10.30;;;21.10;99.90;;;;;;5103936;28;20232;-83
2022/04/22 14:02:58;;;;;;;10.55;10.25;;;20.70;99.90;;;;;;5102580;28;20230;-83
2022/04/22 14:05:29;;;;;;;10.55;10.25;;;20.40;99.90;;;;;;5103526;28;20295;-83
2022/04/22 14:08:05;;;;;;;10.60;10.30;;;20.30;99.90;;;;;;5103439;28;20264;-82
2022/04/22 14:10:34;;;;;;;10.50;10.20;;;20.10;99.90;;;;;;5104763;28;20244;-83
2022/04/22 14:15:51;;;;;;;10.85;10.55;;;19.80;99.90;;;;;;5106122;28;20295;-83
2022/04/22 14:18:30;;;;;;;10.80;10.50;;;19.90;99.90;;;;;;5106742;28;20291;-83
2022/04/22 14:20:58;;;;;;;10.88;10.57;;;19.70;99.90;;;;;;5107807;28;20259;-83
2022/04/22 14:27:17;;;;;;;10.55;10.25;;;20.20;99.90;;;;;;5106306;28;20286;-83
2022/04/22 14:29:47;;;;;;;10.55;10.25;;;21.00;99.90;;;;;;5107492;28;20279;-83
2022/04/22 14:32:16;;;;;;;10.57;10.27;;;21.80;99.90;;;;;;5107743;28;20279;-82
2022/04/22 14:34:45;;;;;;;10.55;10.25;;;22.30;99.90;;;;;;5107175;28;20293;-82
2022/04/22 14:37:16;;;;;;;10.88;10.57;;;22.40;99.90;;;;;;5105059;28;20232;-79
2022/04/22 14:39:44;;;;;;;10.77;10.48;;;22.60;99.90;;;;;;5104269;28;20260;-80
2022/04/22 14:42:17;;;;;;;10.90;10.60;;;22.60;99.90;;;;;;5104653;28;20233;-81
2022/04/22 14:44:45;;;;;;;10.90;10.60;;;22.40;99.90;;;;;;5104948;28;20225;-83
2022/04/22 14:47:14;;;;;;;10.90;10.60;;;22.40;99.90;;;;;;5106291;28;20221;-83
2022/04/22 14:49:42;;;;;;;10.30;10.00;;;22.20;99.90;;;;;;5104921;28;20233;-81